»·PEaware :: N626SP KCNO-KCRQ

N626SP :: KCNO-KCRQ

FLIGHT INFORMATION

Flight Status: Arrived
Operator: Privately registered:
United States
More flights under this callsign
Pilot: Joachim W. (3168)
Aircraft: CESSNA 172 SKYHAWK
(C172)
More flights by this aircraft type
Origin: KCNO Chino
United States
Destination: KCRQ McClellan-Palomar
United States
More flights between these airports :: More routes between these airports
Route: PDZ V186 ROBNN V458 OCN
File this flight plan on PilotEdge
Remarks:
Altitude:
(Current/Filed)
6,000ft
Speed:
(Current/Filed)
120kts
Departed: 14-Mar-19 07:27 PM
Arrived: 14-Mar-19 08:31 PM
Distance/Time
Traveled:
54nm/1:03
Distance/Time
To Go:
Arrived

Flight Plot

Page will automatically refresh every two minutes.


Map Options




Map Legend


Flown Route
Filed Route
Departure Airport
Arrival Airport
Navaid (VOR, NDB)
Fix

Horizontal Profiles

Position Reports

Time Latitude Longitude Heading Altitude Ground
Speed
14-Mar-19 19:07 33.978175 -117.637906 90 634ft 0kts
14-Mar-19 19:08 33.978175 -117.637906 90 634ft 0kts
14-Mar-19 19:09 33.978175 -117.637906 90 634ft 0kts
14-Mar-19 19:10 33.978175 -117.637906 90 634ft 0kts
14-Mar-19 19:11 33.978175 -117.637906 90 634ft 0kts
14-Mar-19 19:12 33.978175 -117.637906 90 634ft 0kts
14-Mar-19 19:13 33.978175 -117.637906 90 634ft 0kts
14-Mar-19 19:14 33.978175 -117.637906 90 634ft 0kts
14-Mar-19 19:15 33.978175 -117.637906 90 634ft 0kts
14-Mar-19 19:16 33.978175 -117.637906 90 634ft 0kts
14-Mar-19 19:17 33.978175 -117.637906 90 634ft 0kts
14-Mar-19 19:18 33.978175 -117.637906 90 634ft 0kts
14-Mar-19 19:19 33.978175 -117.637906 90 634ft 0kts
14-Mar-19 19:20 33.978167 -117.637684 94 634ft 8kts
14-Mar-19 19:21 33.979674 -117.632986 49 643ft 19kts
14-Mar-19 19:22 33.980715 -117.631026 139 645ft 0kts
14-Mar-19 19:23 33.980715 -117.631026 139 645ft 0kts
14-Mar-19 19:23 33.980715 -117.631026 139 645ft 0kts
14-Mar-19 19:25 33.980715 -117.631026 139 645ft 0kts
14-Mar-19 19:26 33.980644 -117.630939 131 645ft 9kts
14-Mar-19 19:26 33.976884 -117.634704 227 636ft 87kts
14-Mar-19 19:27 33.965708 -117.663691 270 1437ft 113kts
14-Mar-19 19:29 33.963276 -117.709981 270 2354ft 114kts
14-Mar-19 19:29 33.961711 -117.740002 269 3161ft 103kts
14-Mar-19 19:30 33.959992 -117.772890 271 3978ft 107kts
14-Mar-19 19:31 33.958876 -117.809231 271 3977ft 98kts
14-Mar-19 19:32 33.957899 -117.840750 270 3981ft 92kts
14-Mar-19 19:33 33.957191 -117.871922 271 3976ft 93kts
14-Mar-19 19:34 33.955905 -117.903438 256 3974ft 95kts
14-Mar-19 19:35 33.938705 -117.900090 76 4563ft 91kts
14-Mar-19 19:36 33.940150 -117.868941 89 5153ft 99kts
14-Mar-19 19:37 33.938072 -117.834990 90 5745ft 103kts
14-Mar-19 19:38 33.935892 -117.800697 89 6342ft 101kts
14-Mar-19 19:39 33.933754 -117.766879 88 6927ft 100kts
14-Mar-19 19:40 33.931349 -117.728842 89 6985ft 122kts
14-Mar-19 19:41 33.924936 -117.688328 116 6986ft 131kts
14-Mar-19 19:42 33.903200 -117.652760 118 6992ft 133kts
14-Mar-19 19:43 33.881041 -117.616657 119 6994ft 134kts
14-Mar-19 19:44 33.858717 -117.580330 117 6999ft 135kts
14-Mar-19 19:45 33.836356 -117.543924 118 7001ft 135kts
14-Mar-19 19:46 33.813930 -117.507472 119 7001ft 135kts
14-Mar-19 19:47 33.791715 -117.471425 119 7003ft 134kts
14-Mar-19 19:48 33.769402 -117.435213 120 7004ft 134kts
14-Mar-19 19:49 33.743079 -117.402943 137 7002ft 138kts
14-Mar-19 19:50 33.712298 -117.374860 138 6995ft 139kts
14-Mar-19 19:51 33.681229 -117.346605 139 6988ft 140kts
14-Mar-19 19:52 33.649910 -117.318165 140 6983ft 141kts
14-Mar-19 19:53 33.618537 -117.289703 140 6980ft 141kts
14-Mar-19 19:54 33.586957 -117.261121 140 6980ft 141kts
14-Mar-19 19:55 33.555515 -117.232645 140 6977ft 142kts
14-Mar-19 19:56 33.523775 -117.203919 140 6976ft 142kts
14-Mar-19 19:57 33.492110 -117.175284 141 6973ft 143kts
14-Mar-19 19:58 33.455853 -117.156988 170 6967ft 143kts
14-Mar-19 19:59 33.416780 -117.148610 171 6964ft 142kts
14-Mar-19 20:00 33.377997 -117.140383 171 6966ft 142kts
14-Mar-19 20:01 33.339162 -117.132155 171 6987ft 142kts
14-Mar-19 20:02 33.300140 -117.123888 171 6989ft 142kts
14-Mar-19 20:03 33.263347 -117.116142 172 6990ft 129kts
14-Mar-19 20:04 33.246291 -117.144599 261 6990ft 115kts
14-Mar-19 20:05 33.239193 -117.184971 261 6989ft 129kts
14-Mar-19 20:06 33.231865 -117.227340 261 6988ft 130kts
14-Mar-19 20:07 33.233464 -117.269697 281 6987ft 128kts
14-Mar-19 20:08 33.237750 -117.304831 281 6982ft 90kts
14-Mar-19 20:09 33.227974 -117.324295 162 6983ft 90kts
14-Mar-19 20:10 33.220259 -117.289585 88 6989ft 133kts
14-Mar-19 20:11 33.219305 -117.243799 87 6987ft 139kts
14-Mar-19 20:12 33.233603 -117.201359 59 6790ft 144kts
14-Mar-19 20:13 33.252302 -117.158247 59 6293ft 147kts
14-Mar-19 20:14 33.271250 -117.114646 59 5793ft 148kts
14-Mar-19 20:15 33.290473 -117.070373 60 5312ft 150kts
14-Mar-19 20:16 33.305033 -117.025516 83 5295ft 145kts
14-Mar-19 20:17 33.298700 -116.982308 116 5298ft 124kts
14-Mar-19 20:18 33.276522 -116.951318 141 5302ft 124kts
14-Mar-19 20:19 33.243430 -116.937237 169 5303ft 131kts
14-Mar-19 20:20 33.207261 -116.946142 201 5284ft 139kts
14-Mar-19 20:21 33.178488 -116.981039 238 4682ft 153kts
14-Mar-19 20:22 33.168823 -117.028702 256 4296ft 133kts
14-Mar-19 20:23 33.161615 -117.072044 259 3876ft 138kts
14-Mar-19 20:24 33.154233 -117.118346 260 3086ft 144kts
14-Mar-19 20:25 33.147840 -117.158407 260 2382ft 94kts
14-Mar-19 20:26 33.143081 -117.188058 259 1839ft 88kts
14-Mar-19 20:27 33.138467 -117.216742 259 1329ft 87kts
14-Mar-19 20:28 33.133850 -117.245409 259 823ft 88kts
14-Mar-19 20:29 33.129486 -117.272535 260 322ft 68kts
14-Mar-19 20:30 33.127279 -117.279949 165 309ft 0kts
14-Mar-19 20:31 33.127279 -117.279949 165 309ft 0kts

Navigation Log

Ident Type
Flight plan parsing failed, navigation log unavailable